Campsprings, KY (41059)

12:29 AM EDT on October 23, 2014 (GMT -0400)
Locust Hill | Change Station
CLOSE
Current Station
Personal Weather Station
Location: Cincinnati, OH
Elevation: 855 ft
Nearby Weather Stations
Active Advisory: Frost Advisory

Elev 855 ft 39.02 °N, 84.30 °W | Updated 4 minutes ago

Overcast
Overcast
47.8 °F
Feels Like 48 °F
N
0.0
Wind Variable Wind from NNW
Gusts 1.0 mph

Today
High -- | Low -- °F
--% Chance of Precip.
Yesterday
High -- | Low -- °F
Precip. -- in
7:55 AM 6:47 PM
Waning Crescent, 1% visible
Pressure 30.28 in
Visibility 10.0 miles
Clouds Scattered Clouds 2600 ft
Overcast 3200 ft
Windchill 48 °F
Dew Point 43 °F
Humidity 84%
Rainfall 0.00 in
Snow Depth Not available.
UV 0 out of 12
Pollen 1.40 out of 12
Air Quality Not available.
Flu Activity Sporadic
SPECI KLUK 230403Z AUTO 10004KT 10SM SCT026 OVC032 09/04 A3028 RMK AO2 T00890044

More Conditions Fewer Conditions

Pressure 30.28 in
Visibility 10.0 miles
Clouds Scattered Clouds 2600 ft
Overcast 3200 ft
Windchill 48 °F
Dew Point 43 °F
Humidity 84%
Rainfall 0.00 in
Snow Depth Not available.
UV 0 out of 12
Pollen 1.40 out of 12
Air Quality Not available.
Flu Activity Sporadic
SPECI KLUK 230403Z AUTO 10004KT 10SM SCT026 OVC032 09/04 A3028 RMK AO2 T00890044

More Conditions Fewer Conditions

10-Day Weather Forecast

Almanac

Astronomy

Oct. 23, 2014 Rise Set
Actual Time 7:55 AM EDT 6:47 PM EDT
Civil Twilight 7:27 AM EDT 7:14 PM EDT
Nautical Twilight 6:56 AM EDT 7:46 PM EDT
Astronomical Twilight 6:25 AM EDT 8:16 PM EDT
Moon 7:34 AM EDT 6:48 PM EDT
Length of Visible Light 11h 46m
Length of Day
10h 52m
Tomorrow will be 2m 22s shorter.
Waning Crescent, 1% of the Moon is Illuminated
Today
Waning Crescent
Oct 23
New
Oct 30
First Quarter
Nov 6
Full
Nov 14
Last Quarter

Today's Extremes

State Highs State Lows

Community

WunderPhotos

Upload Photos

1,764,150 photos uploaded!

Nearby

Snow Depth

Station Depth Elevation
No new snow has been reported.

Earthquake Activity

City Distance Mag. Time & Date
No recent earthquake activity has been reported nearby.
Minimum magnitude displayed is 2.5.

Coastal Water Temperatures

Place Temperature
No Stations Reporting

Nearby Weather Stations